Latest Weather Observations for Point Avoid

IDS60801

Issued at 2:11 pm CDT Tuesday 15 October 2019 (issued every 10 minutes, with the page automatically refreshed every 10 minutes)

About weather observations | Map of weather stations | Latest weather observations for SA | Other Formats
Station Details ID: 018230 Name: POINT AVOID Lat: -34.67 Lon: 135.34 Height: 35.0 m
Data from the previous 72 hours. | See also: Recent months at Point Avoid
Date/Time
CDT
Temp
°C
App
Temp
°C
Dew
Point
°C
Rel
Hum
%
Delta-T
°C
Wind Press
QNH
hPa
Press
MSL
hPa
Rain since
9am
mm
Dir  Spd
km/h
Gust
km/h
Spd
kts
Gust
kts
15/02:00pm 13.3 11.5 13.3 100 0.0 SE 15 20 8 11 1014.6 1014.5 1.0
15/01:30pm 13.7 12.0 13.7 100 0.0 SE 15 20 8 11 1014.3 1014.2 1.0
15/01:00pm 13.9 11.9 13.9 100 0.0 SSE 17 24 9 13 1014.4 1014.3 1.0
15/12:30pm 12.3 10.2 12.3 100 0.0 SSE 15 20 8 11 1015.0 1014.9 0.6
15/12:00pm 13.3 11.5 13.3 100 0.0 SSW 15 19 8 10 1015.8 1015.7 0.2
15/11:30am 13.7 12.0 13.7 100 0.0 SSW 15 19 8 10 1015.4 1015.3 0.0
15/11:00am 14.2 13.1 14.2 100 0.0 SSE 13 17 7 9 1015.4 1015.3 0.0
15/10:30am 14.3 13.6 14.3 100 0.0 SSE 11 17 6 9 1015.8 1015.7 0.0
15/10:00am 16.0 15.2 16.0 100 0.0 SE 15 19 8 10 1015.0 1014.9 0.0
15/09:30am 15.1 14.7 15.1 100 0.0 SE 11 15 6 8 1015.7 1015.6 0.0
15/09:00am 14.9 14.4 14.9 100 0.0 SE 11 15 6 8 1016.1 1016.0 0.0
15/08:30am 12.5 11.2 12.5 100 0.0 SE 11 15 6 8 1015.7 1015.6 0.0
15/08:00am 12.0 9.8 12.0 100 0.0 SE 15 20 8 11 1015.4 1015.3 0.0
15/07:30am 11.2 9.9 11.2 100 0.0 ESE 9 13 5 7 1015.4 1015.3 0.0
15/07:00am 8.5 6.5 8.5 100 0.0 SE 9 11 5 6 1015.1 1015.0 0.0
15/06:30am 8.2 6.1 8.2 100 0.0 ESE 9 11 5 6 1015.0 1014.9 0.0
15/06:00am 9.1 6.4 9.1 100 0.0 E 13 17 7 9 1014.2 1014.1 0.0
15/05:30am 9.5 6.2 9.5 100 0.0 E 17 20 9 11 1013.9 1013.8 0.0
15/05:00am 8.8 6.4 8.8 100 0.0 E 11 13 6 7 1015.0 1014.9 0.0
15/04:30am 9.4 8.2 9.4 100 0.0 ESE 6 6 3 3 1015.7 1015.6 0.0
15/04:00am 8.7 7.3 8.7 100 0.0 ESE 6 7 3 4 1015.6 1015.5 0.0
15/03:30am 8.1 6.0 8.1 100 0.0 E 9 11 5 6 1015.3 1015.2 0.0
15/03:00am 8.2 6.1 8.2 100 0.0 ESE 9 13 5 7 1015.6 1015.5 0.0
15/02:30am 9.3 7.8 9.3 100 0.0 ESE 7 7 4 4 1015.8 1015.7 0.0
15/02:00am 8.8 6.4 8.8 100 0.0 E 11 13 6 7 1015.8 1015.7 0.0
15/01:30am 10.0 8.0 10.0 100 0.0 ESE 11 13 6 7 1015.9 1015.8 0.0
15/01:00am 9.3 7.1 9.3 100 0.0 E 11 13 6 7 1016.1 1016.0 0.0
15/12:30am 9.5 7.3 9.5 100 0.0 ESE 11 13 6 7 1016.4 1016.3 0.0
15/12:00am 10.0 8.3 9.9 99 0.1 ESE 9 11 5 6 1016.6 1016.5 0.0
 
Date/Time
CDT
Temp
°C
App
Temp
°C
Dew
Point
°C
Rel
Hum
%
Delta-T
°C
Wind Press
QNH
hPa
Press
MSL
hPa
Rain since
9am
mm
Dir  Spd
km/h
Gust
km/h
Spd
kts
Gust
kts
14/11:30pm 11.5 9.3 10.9 96 0.3 ESE 13 17 7 9 1016.7 1016.6 0.0
14/11:00pm 12.2 9.9 11.6 96 0.3 SSE 15 19 8 10 1016.8 1016.7 0.0
14/10:30pm 12.4 9.7 11.8 96 0.3 SSE 17 19 9 10 1017.0 1016.9 0.0
14/10:00pm 12.3 10.3 11.5 95 0.4 SSE 13 19 7 10 1017.2 1017.1 0.0
14/09:30pm 12.4 10.4 11.6 95 0.4 SSE 13 17 7 9 1017.3 1017.2 0.0
14/09:00pm 12.4 10.4 11.5 94 0.5 S 13 17 7 9 1017.0 1016.9 0.0
14/08:30pm 12.5 10.5 11.4 93 0.6 S 13 17 7 9 1016.9 1016.8 0.0
14/08:00pm 12.8 10.7 11.2 90 0.8 S 13 17 7 9 1016.8 1016.7 0.0
14/07:30pm 13.5 11.5 11.4 87 1.1 SSW 13 17 7 9 1016.5 1016.4 0.0
14/07:00pm 14.5 12.2 11.8 84 1.5 SSW 15 17 8 9 1016.2 1016.1 0.0
14/06:30pm 15.2 13.4 12.2 82 1.6 S 13 17 7 9 1015.9 1015.8 0.0
14/06:00pm 15.4 13.2 12.0 80 1.8 SSW 15 19 8 10 1015.7 1015.6 0.0
14/05:30pm 15.9 13.9 12.6 81 1.8 SSW 15 19 8 10 1015.7 1015.6 0.0
14/05:00pm 16.0 13.6 12.7 81 1.8 SSW 17 20 9 11 1015.7 1015.6 0.0
14/04:30pm 16.2 14.2 12.6 79 2.0 SSW 15 20 8 11 1015.8 1015.7 0.0
14/04:00pm 16.3 14.2 12.3 77 2.2 SSW 15 20 8 11 1015.7 1015.6 0.0
14/03:30pm 16.4 14.8 12.8 79 2.0 SSW 13 19 7 10 1015.8 1015.7 0.0
14/03:00pm 17.1 16.1 13.4 79 2.1 SSW 11 17 6 9 1016.1 1016.0 0.0
14/02:30pm 16.5 14.6 13.0 80 1.9 SSW 15 19 8 10 1016.2 1016.1 0.0
14/02:00pm 17.0 15.8 13.9 82 1.8 S 13 19 7 10 1016.2 1016.1 0.0
14/01:30pm 16.9 15.3 13.8 82 1.8 S 15 20 8 11 1016.3 1016.2 0.0
14/01:00pm 17.4 15.6 14.5 83 1.7 S 17 20 9 11 1016.4 1016.3 0.0
14/12:30pm 16.7 14.8 14.2 85 1.4 SSW 17 24 9 13 1016.5 1016.4 0.0
14/12:00pm 16.6 14.4 14.4 87 1.3 SSW 19 24 10 13 1016.6 1016.5 0.0
14/11:30am 16.4 14.1 14.2 87 1.3 SSW 19 22 10 12 1016.6 1016.5 0.0
14/11:00am 16.5 14.3 14.9 90 0.9 SSW 20 24 11 13 1016.8 1016.7 0.0
14/10:30am 16.2 13.6 14.9 92 0.7 SW 22 26 12 14 1016.7 1016.6 0.0
14/10:00am 15.8 13.3 15.2 96 0.3 SW 22 28 12 15 1016.5 1016.4 0.0
14/09:30am 15.7 13.9 15.4 98 0.2 SW 19 26 10 14 1016.5 1016.4 0.0
14/09:00am 14.9 13.2 14.7 99 0.1 WSW 17 24 9 13 1016.2 1016.1 5.0
14/08:30am 14.9 13.3 14.9 100 0.0 WSW 17 20 9 11 1016.1 1016.0 5.0
14/08:00am 13.8 11.4 13.8 100 0.0 WSW 19 24 10 13 1015.9 1015.8 5.0
14/07:30am 13.4 11.9 13.1 98 0.2 WSW 13 19 7 10 1015.8 1015.7 5.0
14/07:00am 13.6 12.9 13.3 98 0.2 WSW 9 11 5 6 1015.5 1015.4 5.0
14/06:30am 13.7 13.1 13.5 99 0.1 WSW 9 11 5 6 1015.4 1015.3 5.0
14/06:00am 13.4 12.8 13.4 100 0.0 SW 9 13 5 7 1015.0 1014.9 5.0
14/05:30am 13.3 13.0 13.3 100 0.0 SSW 7 11 4 6 1014.8 1014.7 5.0
14/05:00am 13.8 12.9 13.8 100 0.0 SSW 11 15 6 8 1014.5 1014.4 5.0
14/04:30am 13.7 12.4 13.7 100 0.0 SSW 13 19 7 10 1014.3 1014.2 5.0
14/04:00am 13.8 11.8 13.8 100 0.0 SSW 17 22 9 12 1014.1 1014.0 5.0
14/03:30am 13.9 11.3 13.9 100 0.0 SSW 20 28 11 15 1013.7 1013.6 5.0
14/03:00am 13.9 11.9 13.9 100 0.0 WSW 17 22 9 12 1014.5 1014.4 5.0
14/02:30am 13.1 11.6 13.1 100 0.0 SW 13 19 7 10 1014.5 1014.4 5.0
14/02:00am 13.2 11.0 13.2 100 0.0 SW 17 22 9 12 1014.7 1014.6 5.0
14/01:30am 13.3 11.1 13.3 100 0.0 SW 17 24 9 13 1014.9 1014.8 5.0
14/01:00am 13.5 11.8 13.5 100 0.0 WSW 15 22 8 12 1014.8 1014.7 5.0
14/12:30am 13.6 11.1 13.6 100 0.0 WSW 19 24 10 13 1014.8 1014.7 5.0
14/12:00am 13.2 11.4 13.2 100 0.0 WSW 15 19 8 10 1014.6 1014.5 5.0
 
Date/Time
CDT
Temp
°C
App
Temp
°C
Dew
Point
°C
Rel
Hum
%
Delta-T
°C
Wind Press
QNH
hPa
Press
MSL
hPa
Rain since
9am
mm
Dir  Spd
km/h
Gust
km/h
Spd
kts
Gust
kts
13/11:30pm 13.4 10.9 13.4 100 0.0 SW 19 24 10 13 1014.5 1014.4 5.0
13/11:00pm 13.8 11.4 13.8 100 0.0 WSW 19 26 10 14 1014.7 1014.6 5.0
13/10:30pm 13.8 10.8 13.8 100 0.0 WSW 22 30 12 16 1014.5 1014.4 5.0
13/10:00pm 14.1 11.2 14.1 100 0.0 WSW 22 28 12 15 1014.5 1014.4 5.0
13/09:30pm 13.9 10.6 13.9 100 0.0 WSW 24 30 13 16 1014.2 1014.1 5.0
13/09:00pm 14.2 11.4 14.2 100 0.0 W 22 32 12 17 1013.9 1013.8 5.0
13/08:30pm 14.4 11.3 14.4 100 0.0 W 24 33 13 18 1013.3 1013.2 5.0
13/08:00pm 14.4 11.3 14.4 100 0.0 W 24 32 13 17 1012.8 1012.7 5.0
13/07:30pm 14.6 11.9 14.6 100 0.0 W 22 30 12 16 1012.4 1012.3 5.0
13/07:00pm 15.0 11.7 15.0 100 0.0 W 26 33 14 18 1012.1 1012.0 5.0
13/06:30pm 15.2 12.3 15.2 100 0.0 W 24 30 13 16 1011.9 1011.8 5.0
13/06:00pm 15.8 13.5 15.8 100 0.0 W 22 30 12 16 1011.4 1011.3 5.0
13/05:30pm 16.5 14.1 16.3 99 0.1 W 24 30 13 16 1011.1 1011.0 5.0
13/05:00pm 17.4 15.7 17.2 99 0.1 W 22 30 12 16 1011.1 1011.0 5.0
13/04:30pm 17.7 15.1 17.7 100 0.0 W 28 37 15 20 1010.9 1010.8 5.0
13/04:00pm 17.9 16.1 17.9 100 0.0 WNW 24 33 13 18 1010.7 1010.6 5.0
13/03:30pm 17.6 15.7 17.6 100 0.0 WNW 24 33 13 18 1010.9 1010.8 5.0
13/03:00pm 17.6 16.1 17.6 100 0.0 WNW 22 30 12 16 1010.9 1010.8 5.0
13/02:30pm 17.6 15.3 17.6 100 0.0 WNW 26 35 14 19 1011.2 1011.1 4.8
13/02:00pm 17.6 15.7 17.6 100 0.0 NW 24 33 13 18 1011.5 1011.4 4.8
13/01:30pm 15.9 13.7 15.9 100 0.0 NW 22 30 12 16 1011.6 1011.5 4.8
13/01:00pm 16.1 14.0 16.1 100 0.0 NW 22 30 12 16 1012.0 1011.9 4.8
13/12:30pm 15.0 12.1 15.0 100 0.0 NW 24 37 13 20 1012.4 1012.3 4.8
13/12:00pm 15.1 11.1 15.1 100 0.0 NNW 30 41 16 22 1012.8 1012.7 4.6
13/11:30am 15.4 11.1 15.4 100 0.0 NW 32 41 17 22 1011.9 1011.8 3.0
13/11:00am 15.8 11.6 15.8 100 0.0 NW 32 43 17 23 1012.0 1011.9 1.0
13/10:30am 15.8 10.3 15.8 100 0.0 NW 39 46 21 25 1011.8 1011.7 0.8
13/10:00am 15.8 12.0 15.8 100 0.0 NW 30 41 16 22 1011.1 1011.0 0.2
13/09:30am 17.6 12.5 15.8 89 1.1 NW 37 50 20 27 1011.3 1011.2 0.0
13/09:00am 18.7 12.0 15.0 79 2.2 NNW 44 59 24 32 1010.4 1010.3 0.0
13/08:31am 17.2 12.2 14.1 82 1.8 NNW 33 54 18 29 1010.0 1009.9 0.0
13/08:30am 17.2 11.8 13.9 81 1.9 NNW 35 54 19 29 1010.1 1010.0 0.0
13/08:23am 18.1 13.7 14.0 77 2.3 NNW 30 54 16 29 1010.1 1010.0 0.0
13/08:00am 17.2 13.9 13.9 81 1.9 N 24 39 13 21 1008.7 1008.7 0.0
13/07:58am 17.2 14.3 13.9 81 1.9 N 22 39 12 21 1008.5 1008.5 0.0
13/07:30am 16.3 13.5 14.3 88 1.1 NNE 22 35 12 19 1006.4 1006.4 0.0
13/07:00am 16.5 14.8 13.6 83 1.6 N 15 22 8 12 1008.2 1008.2 0.0
13/06:30am 15.9 15.4 13.7 87 1.2 N 9 13 5 7 1009.0 1009.0 0.0
13/06:00am 15.6 15.2 14.1 91 0.9 N 9 13 5 7 1009.1 1009.1 0.0
13/05:30am 16.0 15.1 13.7 86 1.3 NNW 11 13 6 7 1009.8 1009.7 0.0
13/05:00am 16.0 15.3 12.0 77 2.2 NNE 7 11 4 6 1008.9 1008.9 0.0
13/04:30am 16.0 16.1 11.4 74 2.5 ENE 2 6 1 3 1009.1 1009.1 0.0
13/04:00am 16.0 14.8 11.6 75 2.4 NE 9 13 5 7 1009.0 1009.0 0.0
13/03:30am 16.0 13.2 11.4 74 2.5 ENE 17 20 9 11 1008.7 1008.7 0.0
13/03:00am 15.7 13.3 11.3 75 2.4 ENE 15 20 8 11 1009.2 1009.2 0.0
13/02:30am 15.4 12.1 11.6 78 2.1 ENE 20 26 11 14 1009.3 1009.3 0.0
13/02:00am 15.6 12.7 12.2 80 1.9 ENE 19 26 10 14 1010.0 1009.9 0.0
13/01:30am 15.9 12.9 12.1 78 2.1 ENE 19 26 10 14 1010.7 1010.6 0.0
13/01:00am 16.1 12.5 11.9 76 2.3 ENE 22 30 12 16 1011.1 1011.0 0.0
13/12:30am 16.2 12.4 11.2 72 2.7 ENE 22 30 12 16 1011.2 1011.1 0.0
13/12:00am 16.2 12.6 10.7 70 2.9 ENE 20 26 11 14 1011.5 1011.4 0.0
 
Date/Time
CDT
Temp
°C
App
Temp
°C
Dew
Point
°C
Rel
Hum
%
Delta-T
°C
Wind Press
QNH
hPa
Press
MSL
hPa
Rain since
9am
mm
Dir  Spd
km/h
Gust
km/h
Spd
kts
Gust
kts
12/11:30pm 16.4 12.8 10.7 69 3.0 ENE 20 26 11 14 1011.7 1011.6 0.0
12/11:00pm 16.6 13.7 11.1 70 3.0 ENE 17 26 9 14 1012.0 1011.9 0.0
12/10:30pm 17.1 15.1 11.4 69 3.1 ESE 13 19 7 10 1012.2 1012.1 0.0
12/10:00pm 17.0 15.0 12.7 76 2.4 ESE 15 20 8 11 1012.1 1012.0 0.0
12/09:30pm 16.2 14.3 14.2 88 1.1 SE 17 20 9 11 1011.7 1011.6 0.0
12/09:00pm 15.9 14.5 14.4 91 0.9 SE 15 17 8 9 1011.4 1011.3 0.0
12/08:30pm 16.2 15.1 14.4 89 1.0 SE 13 17 7 9 1011.3 1011.2 0.0
12/08:00pm 16.7 14.8 14.3 86 1.4 SE 17 20 9 11 1010.8 1010.7 0.0
12/07:30pm 17.0 15.2 14.5 85 1.4 SE 17 20 9 11 1010.3 1010.2 0.0
12/07:00pm 18.1 16.4 13.6 75 2.6 SE 15 19 8 10 1010.0 1009.9 0.0
12/06:30pm 21.5 17.6 9.4 46 6.5 ESE 20 24 11 13 1009.4 1009.4 0.0
12/06:00pm 22.8 19.7 10.3 45 6.9 ESE 17 20 9 11 1009.1 1009.1 0.0
12/05:30pm 24.2 21.4 11.2 44 7.3 ESE 17 24 9 13 1008.6 1008.6 0.0
12/05:00pm 25.0 22.5 12.2 44 7.3 ESE 17 24 9 13 1008.5 1008.5 0.0
12/04:30pm 25.5 22.6 12.4 44 7.6 E 19 28 10 15 1008.3 1008.3 0.0
12/04:00pm 26.3 24.1 13.4 45 7.6 E 17 26 9 14 1008.2 1008.2 0.0
12/03:30pm 26.0 24.4 13.8 47 7.2 E 15 24 8 13 1008.3 1008.3 0.0
12/03:00pm 27.1 24.7 14.5 46 7.6 ENE 20 32 11 17 1007.6 1007.6 0.0
12/02:30pm 26.3 24.1 14.4 48 7.1 ENE 19 28 10 15 1008.4 1008.4 0.0

Other formats

Comma delimited format used in spreadsheet applications
http://www.bom.gov.au/fwo/IDS60801/IDS60801.95649.axf

JavaScript Object Notation format (JSON) in row-major order
http://www.bom.gov.au/fwo/IDS60801/IDS60801.95649.json

Data quality

Most of these data are generated automatically and are frequently updated. Quality checks on data are not normally performed. It is possible for incorrect values to appear. Refer to information at About Latest Weather Observations and please check the disclaimer before using these data.